Kezdőlap
METAR-TAF:

METAR-TAF

Repülőterek :

Berlevåg, Norvégia

földrajzi szélesség: 70-52N, földrajzi hosszúság: 029-02E, magasság: 1 m

Jelenlegi meteorológiai megfigyelések

A jelentés 1 órával és 9 perccel ezelõtt készült, 12:50 UTC
Különbözõ irányokból fújó szél 3 kt
Hőmérséklet 15°C
Páratartalom 67%
Légköri nyomás 1012 hPa
Látótávolság 10 km, vagy több
Szórványos felhőzet 4400 lábon

METAR: ENBV 161250Z VRB03KT 9999 SCT044 15/09 Q1012

Idő: 15:59 (13:59 UTC)

Előrejelzés

A jelentés 2 órával és 59 perccel ezelõtt készült, 11:00 UTC
Az előrejelzés 16-én 12 óra UTC és 16-én 21 óra UTC között érvényes
Nyugat-északnyugati szél 8 kt
Látótávolság 10 km, vagy több
Szórványos felhőzet 3000 lábon
16-én 12 óra UTC és 16-én 21 óra UTC között ideiglenes
Déli szél 15 kt

TAF: ENBV 161100Z 1612/1621 30008KT 9999 SCT030 TEMPO 1612/1621 18015KT

Meteorológiai megfigyelések és előrejelzések több, mint 4000 repülőtéren (METAR és TAF jelentéseket).

A térképen piros és sárga pontok jelzik az elérhető meteorológiai állomásokat.

Mozgassa az egeret a pont fölött, hogy megjelenjen az állomás neve.

Azután kattintson az időjárási megfigyelések és előrejelzések megtekintéséhez.

A térkép megváltoztatása: kattintson a fekete keresztel jelölt zöld gombra ráközelítéshez, a vonallal jelölt zöld gombra távolításhoz, vagy a zöld nyilakra a szomszédos térképek eléréséhez.


METAR-TAF: